sensor_id;sensor_type;location;lat;lon;timestamp;pressure;altitude;pressure_sealevel;temperature;humidity
52535;BME280;38443;53.164;5.802;2022-10-31T00:00:49;102109.19;;;10.31;100.00
52535;BME280;38443;53.164;5.802;2022-10-31T00:03:15;102113.63;;;10.35;100.00
52535;BME280;38443;53.164;5.802;2022-10-31T00:05:48;102113.59;;;10.37;100.00
52535;BME280;38443;53.164;5.802;2022-10-31T00:08:15;102120.75;;;10.36;100.00
52535;BME280;38443;53.164;5.802;2022-10-31T00:10:42;102113.63;;;10.35;100.00
52535;BME280;38443;53.164;5.802;2022-10-31T00:13:09;102123.44;;;10.35;100.00
52535;BME280;38443;53.164;5.802;2022-10-31T00:15:35;102122.53;;;10.37;100.00
52535;BME280;38443;53.164;5.802;2022-10-31T00:18:02;102111.81;;;10.39;100.00
52535;BME280;38443;53.164;5.802;2022-10-31T00:20:27;102122.47;;;10.42;100.00
52535;BME280;38443;53.164;5.802;2022-10-31T00:22:53;102123.38;;;10.43;100.00
52535;BME280;38443;53.164;5.802;2022-10-31T00:25:18;102114.47;;;10.39;100.00
52535;BME280;38443;53.164;5.802;2022-10-31T00:27:45;102118.09;;;10.36;100.00
52535;BME280;38443;53.164;5.802;2022-10-31T00:30:10;102119.91;;;10.31;100.00
52535;BME280;38443;53.164;5.802;2022-10-31T00:32:36;102118.97;;;10.29;100.00
52535;BME280;38443;53.164;5.802;2022-10-31T00:35:01;102121.66;;;10.28;100.00
52535;BME280;38443;53.164;5.802;2022-10-31T00:37:26;102122.59;;;10.25;100.00
52535;BME280;38443;53.164;5.802;2022-10-31T00:39:52;102119.91;;;10.27;100.00
52535;BME280;38443;53.164;5.802;2022-10-31T00:42:17;102127.94;;;10.25;100.00
52535;BME280;38443;53.164;5.802;2022-10-31T00:44:42;102124.38;;;10.23;100.00
52535;BME280;38443;53.164;5.802;2022-10-31T00:47:08;102119.03;;;10.22;100.00
52535;BME280;38443;53.164;5.802;2022-10-31T00:49:33;102117.28;;;10.19;100.00
52535;BME280;38443;53.164;5.802;2022-10-31T00:51:58;102128.03;;;10.13;100.00
52535;BME280;38443;53.164;5.802;2022-10-31T00:54:24;102121.81;;;10.09;100.00
52535;BME280;38443;53.164;5.802;2022-10-31T00:56:49;102136.09;;;10.08;100.00
52535;BME280;38443;53.164;5.802;2022-10-31T00:59:14;102138.78;;;10.05;100.00
52535;BME280;38443;53.164;5.802;2022-10-31T01:01:40;102143.25;;;10.03;100.00
52535;BME280;38443;53.164;5.802;2022-10-31T01:04:05;102140.56;;;10.05;100.00
52535;BME280;38443;53.164;5.802;2022-10-31T01:06:30;102145.91;;;10.02;100.00
52535;BME280;38443;53.164;5.802;2022-10-31T01:08:56;102135.25;;;9.98;100.00
52535;BME280;38443;53.164;5.802;2022-10-31T01:11:22;102139.69;;;9.98;100.00
52535;BME280;38443;53.164;5.802;2022-10-31T01:13:50;102137.06;;;9.96;100.00
52535;BME280;38443;53.164;5.802;2022-10-31T01:16:17;102147.75;;;9.96;100.00
52535;BME280;38443;53.164;5.802;2022-10-31T01:18:43;102153.09;;;9.95;100.00
52535;BME280;38443;53.164;5.802;2022-10-31T01:21:13;102149.59;;;9.87;100.00
52535;BME280;38443;53.164;5.802;2022-10-31T01:23:39;102152.25;;;9.85;100.00
52535;BME280;38443;53.164;5.802;2022-10-31T01:28:34;102148.75;;;9.77;100.00
52535;BME280;38443;53.164;5.802;2022-10-31T01:31:04;102146.06;;;9.75;100.00
52535;BME280;38443;53.164;5.802;2022-10-31T01:33:29;102146.97;;;9.74;100.00
52535;BME280;38443;53.164;5.802;2022-10-31T01:35:55;102147.84;;;9.76;100.00
52535;BME280;38443;53.164;5.802;2022-10-31T01:38:20;102149.63;;;9.76;100.00
52535;BME280;38443;53.164;5.802;2022-10-31T01:40:45;102150.53;;;9.73;100.00
52535;BME280;38443;53.164;5.802;2022-10-31T01:43:14;102150.53;;;9.73;100.00
52535;BME280;38443;53.164;5.802;2022-10-31T01:45:41;102143.44;;;9.71;100.00
52535;BME280;38443;53.164;5.802;2022-10-31T01:48:13;102142.53;;;9.70;100.00
52535;BME280;38443;53.164;5.802;2022-10-31T01:50:40;102144.34;;;9.68;100.00
52535;BME280;38443;53.164;5.802;2022-10-31T01:53:08;102142.50;;;9.72;100.00
52535;BME280;38443;53.164;5.802;2022-10-31T01:55:41;102146.97;;;9.74;100.00
52535;BME280;38443;53.164;5.802;2022-10-31T01:58:13;102149.66;;;9.74;100.00
52535;BME280;38443;53.164;5.802;2022-10-31T02:00:41;102146.97;;;9.71;100.00
52535;BME280;38443;53.164;5.802;2022-10-31T02:03:08;102147.88;;;9.67;100.00
52535;BME280;38443;53.164;5.802;2022-10-31T02:05:35;102149.69;;;9.62;100.00
52535;BME280;38443;53.164;5.802;2022-10-31T02:08:08;102153.28;;;9.55;100.00
52535;BME280;38443;53.164;5.802;2022-10-31T02:10:36;102152.41;;;9.51;100.00
52535;BME280;38443;53.164;5.802;2022-10-31T02:13:04;102149.75;;;9.47;100.00
52535;BME280;38443;53.164;5.802;2022-10-31T02:15:32;102150.66;;;9.43;100.00
52535;BME280;38443;53.164;5.802;2022-10-31T02:17:58;102147.13;;;9.34;100.00
52535;BME280;38443;53.164;5.802;2022-10-31T02:20:25;102148.03;;;9.26;100.00
52535;BME280;38443;53.164;5.802;2022-10-31T02:28:47;102150.75;;;9.10;100.00
52535;BME280;38443;53.164;5.802;2022-10-31T02:31:42;102147.19;;;9.10;100.00
52535;BME280;38443;53.164;5.802;2022-10-31T02:34:32;102144.50;;;9.11;100.00
52535;BME280;38443;53.164;5.802;2022-10-31T02:37:13;102144.50;;;9.11;100.00
52535;BME280;38443;53.164;5.802;2022-10-31T02:43:08;102132.97;;;9.06;100.00
52535;BME280;38443;53.164;5.802;2022-10-31T02:48:45;102132.06;;;8.99;100.00
52535;BME280;38443;53.164;5.802;2022-10-31T02:51:13;102133.88;;;9.02;100.00
52535;BME280;38443;53.164;5.802;2022-10-31T02:53:39;102133.84;;;9.07;100.00
52535;BME280;38443;53.164;5.802;2022-10-31T02:56:11;102129.38;;;9.06;100.00
52535;BME280;38443;53.164;5.802;2022-10-31T02:58:46;102126.72;;;9.07;100.00
52535;BME280;38443;53.164;5.802;2022-10-31T03:06:14;102126.72;;;8.99;100.00
52535;BME280;38443;53.164;5.802;2022-10-31T03:09:02;102131.19;;;8.97;100.00
52535;BME280;38443;53.164;5.802;2022-10-31T03:11:44;102128.53;;;8.90;100.00
52535;BME280;38443;53.164;5.802;2022-10-31T03:14:24;102128.53;;;8.85;100.00
52535;BME280;38443;53.164;5.802;2022-10-31T03:16:52;102137.44;;;8.81;100.00
52535;BME280;38443;53.164;5.802;2022-10-31T03:19:26;102133.00;;;8.80;100.00
52535;BME280;38443;53.164;5.802;2022-10-31T03:24:26;102136.59;;;8.76;100.00
52535;BME280;38443;53.164;5.802;2022-10-31T03:26:54;102132.13;;;8.67;100.00
52535;BME280;38443;53.164;5.802;2022-10-31T03:29:24;102131.25;;;8.62;100.00
52535;BME280;38443;53.164;5.802;2022-10-31T03:31:59;102133.00;;;8.62;100.00
52535;BME280;38443;53.164;5.802;2022-10-31T03:34:27;102134.78;;;8.59;100.00
52535;BME280;38443;53.164;5.802;2022-10-31T03:36:56;102138.38;;;8.52;100.00
52535;BME280;38443;53.164;5.802;2022-10-31T03:39:22;102143.69;;;8.48;100.00
52535;BME280;38443;53.164;5.802;2022-10-31T03:42:02;102141.00;;;8.43;100.00
52535;BME280;38443;53.164;5.802;2022-10-31T03:44:29;102138.31;;;8.40;100.00
52535;BME280;38443;53.164;5.802;2022-10-31T03:46:56;102143.66;;;8.37;100.00
52535;BME280;38443;53.164;5.802;2022-10-31T03:49:21;102148.09;;;8.33;100.00
52535;BME280;38443;53.164;5.802;2022-10-31T03:51:52;102148.97;;;8.37;100.00
52535;BME280;38443;53.164;5.802;2022-10-31T03:54:42;102152.56;;;8.45;100.00
52535;BME280;38443;53.164;5.802;2022-10-31T03:57:18;102150.81;;;8.49;100.00
52535;BME280;38443;53.164;5.802;2022-10-31T04:00:08;102152.56;;;8.44;100.00
52535;BME280;38443;53.164;5.802;2022-10-31T04:02:37;102145.44;;;8.35;100.00
52535;BME280;38443;53.164;5.802;2022-10-31T04:05:05;102153.44;;;8.32;100.00
52535;BME280;38443;53.164;5.802;2022-10-31T04:07:35;102159.66;;;8.26;100.00
52535;BME280;38443;53.164;5.802;2022-10-31T04:10:05;102163.22;;;8.22;100.00
52535;BME280;38443;53.164;5.802;2022-10-31T04:12:33;102164.09;;;8.24;100.00
52535;BME280;38443;53.164;5.802;2022-10-31T04:15:01;102154.28;;;8.28;100.00
52535;BME280;38443;53.164;5.802;2022-10-31T04:17:30;102151.63;;;8.29;100.00
52535;BME280;38443;53.164;5.802;2022-10-31T04:19:59;102152.53;;;8.34;100.00
52535;BME280;38443;53.164;5.802;2022-10-31T04:22:25;102157.91;;;8.36;100.00
52535;BME280;38443;53.164;5.802;2022-10-31T04:24:50;102155.19;;;8.31;100.00
52535;BME280;38443;53.164;5.802;2022-10-31T04:27:16;102156.97;;;8.28;100.00
52535;BME280;38443;53.164;5.802;2022-10-31T04:29:41;102158.75;;;8.18;100.00
52535;BME280;38443;53.164;5.802;2022-10-31T04:32:06;102159.63;;;8.15;100.00
52535;BME280;38443;53.164;5.802;2022-10-31T04:34:31;102160.50;;;8.11;100.00
52535;BME280;38443;53.164;5.802;2022-10-31T04:36:57;102156.97;;;8.12;100.00
52535;BME280;38443;53.164;5.802;2022-10-31T04:39:22;102164.94;;;8.09;100.00
52535;BME280;38443;53.164;5.802;2022-10-31T04:41:47;102166.69;;;7.99;100.00
52535;BME280;38443;53.164;5.802;2022-10-31T04:44:13;102165.81;;;7.96;100.00
52535;BME280;38443;53.164;5.802;2022-10-31T04:46:38;102167.56;;;7.89;100.00
52535;BME280;38443;53.164;5.802;2022-10-31T04:49:03;102169.34;;;7.90;100.00
52535;BME280;38443;53.164;5.802;2022-10-31T04:51:29;102157.75;;;7.85;100.00
52535;BME280;38443;53.164;5.802;2022-10-31T04:53:54;102166.66;;;7.84;100.00
52535;BME280;38443;53.164;5.802;2022-10-31T04:56:19;102161.28;;;7.79;100.00
52535;BME280;38443;53.164;5.802;2022-10-31T04:58:44;102166.63;;;7.76;100.00
52535;BME280;38443;53.164;5.802;2022-10-31T05:01:10;102155.97;;;7.76;100.00
52535;BME280;38443;53.164;5.802;2022-10-31T05:03:35;102163.06;;;7.77;100.00
52535;BME280;38443;53.164;5.802;2022-10-31T05:06:00;102163.97;;;7.79;100.00
52535;BME280;38443;53.164;5.802;2022-10-31T05:08:26;102156.88;;;7.80;100.00
52535;BME280;38443;53.164;5.802;2022-10-31T05:10:51;102161.31;;;7.83;100.00
52535;BME280;38443;53.164;5.802;2022-10-31T05:13:17;102155.09;;;7.85;100.00
52535;BME280;38443;53.164;5.802;2022-10-31T05:15:42;102163.09;;;7.87;100.00
52535;BME280;38443;53.164;5.802;2022-10-31T05:18:07;102156.88;;;7.83;100.00
52535;BME280;38443;53.164;5.802;2022-10-31T05:20:32;102156.88;;;7.83;100.00
52535;BME280;38443;53.164;5.802;2022-10-31T05:22:58;102163.09;;;7.81;100.00
52535;BME280;38443;53.164;5.802;2022-10-31T05:25:24;102163.06;;;7.77;100.00
52535;BME280;38443;53.164;5.802;2022-10-31T05:27:51;102163.97;;;7.78;100.00
52535;BME280;38443;53.164;5.802;2022-10-31T05:30:18;102155.06;;;7.77;100.00
52535;BME280;38443;53.164;5.802;2022-10-31T05:32:44;102150.63;;;7.79;100.00
52535;BME280;38443;53.164;5.802;2022-10-31T05:35:11;102157.78;;;7.82;100.00
52535;BME280;38443;53.164;5.802;2022-10-31T05:37:37;102159.53;;;7.83;100.00
52535;BME280;38443;53.164;5.802;2022-10-31T05:40:03;102165.75;;;7.84;100.00
52535;BME280;38443;53.164;5.802;2022-10-31T05:42:28;102162.19;;;7.82;100.00
52535;BME280;38443;53.164;5.802;2022-10-31T05:44:53;102154.19;;;7.78;100.00
52535;BME280;38443;53.164;5.802;2022-10-31T05:47:18;102149.75;;;7.76;100.00
52535;BME280;38443;53.164;5.802;2022-10-31T05:49:45;102146.19;;;7.74;100.00
52535;BME280;38443;53.164;5.802;2022-10-31T05:52:10;102147.06;;;7.73;100.00
52535;BME280;38443;53.164;5.802;2022-10-31T05:54:35;102142.63;;;7.75;100.00
52535;BME280;38443;53.164;5.802;2022-10-31T05:57:01;102139.09;;;7.81;100.00
52535;BME280;38443;53.164;5.802;2022-10-31T05:59:26;102138.22;;;7.85;100.00
52535;BME280;38443;53.164;5.802;2022-10-31T06:01:51;102146.22;;;7.85;100.00
52535;BME280;38443;53.164;5.802;2022-10-31T06:04:16;102145.31;;;7.81;100.00
52535;BME280;38443;53.164;5.802;2022-10-31T06:06:42;102147.97;;;7.81;100.00
52535;BME280;38443;53.164;5.802;2022-10-31T06:09:07;102151.53;;;7.80;100.00
52535;BME280;38443;53.164;5.802;2022-10-31T06:11:32;102148.88;;;7.82;100.00
52535;BME280;38443;53.164;5.802;2022-10-31T06:13:57;102149.78;;;7.82;100.00
52535;BME280;38443;53.164;5.802;2022-10-31T06:16:22;102142.66;;;7.81;100.00
52535;BME280;38443;53.164;5.802;2022-10-31T06:18:48;102139.13;;;7.82;100.00
52535;BME280;38443;53.164;5.802;2022-10-31T06:21:16;102136.44;;;7.82;100.00
52535;BME280;38443;53.164;5.802;2022-10-31T06:23:41;102134.66;;;7.83;100.00
52535;BME280;38443;53.164;5.802;2022-10-31T06:26:06;102140.00;;;7.83;100.00
52535;BME280;38443;53.164;5.802;2022-10-31T06:28:32;102140.00;;;7.83;100.00
52535;BME280;38443;53.164;5.802;2022-10-31T06:30:57;102128.44;;;7.82;100.00
52535;BME280;38443;53.164;5.802;2022-10-31T06:33:22;102128.44;;;7.81;100.00
52535;BME280;38443;53.164;5.802;2022-10-31T06:35:47;102136.44;;;7.81;100.00
52535;BME280;38443;53.164;5.802;2022-10-31T06:38:13;102120.47;;;7.82;100.00
52535;BME280;38443;53.164;5.802;2022-10-31T06:40:38;102132.88;;;7.83;100.00
52535;BME280;38443;53.164;5.802;2022-10-31T06:43:03;102139.09;;;7.84;100.00
52535;BME280;38443;53.164;5.802;2022-10-31T06:45:29;102139.09;;;7.85;100.00
52535;BME280;38443;53.164;5.802;2022-10-31T06:47:54;102133.78;;;7.85;100.00
52535;BME280;38443;53.164;5.802;2022-10-31T06:50:20;102132.88;;;7.82;100.00
52535;BME280;38443;53.164;5.802;2022-10-31T06:52:52;102135.53;;;7.75;100.00
52535;BME280;38443;53.164;5.802;2022-10-31T06:55:17;102134.63;;;7.70;100.00
52535;BME280;38443;53.164;5.802;2022-10-31T06:57:48;102138.16;;;7.66;100.00
52535;BME280;38443;53.164;5.802;2022-10-31T07:00:14;102130.16;;;7.65;100.00
52535;BME280;38443;53.164;5.802;2022-10-31T07:02:39;102138.16;;;7.69;100.00
52535;BME280;38443;53.164;5.802;2022-10-31T07:05:04;102136.41;;;7.71;100.00
52535;BME280;38443;53.164;5.802;2022-10-31T07:07:30;102141.75;;;7.73;100.00
52535;BME280;38443;53.164;5.802;2022-10-31T07:09:55;102142.66;;;7.76;100.00
52535;BME280;38443;53.164;5.802;2022-10-31T07:12:20;102144.41;;;7.79;100.00
52535;BME280;38443;53.164;5.802;2022-10-31T07:14:45;102152.41;;;7.84;100.00
52535;BME280;38443;53.164;5.802;2022-10-31T07:17:10;102149.78;;;7.91;100.00
52535;BME280;38443;53.164;5.802;2022-10-31T07:19:36;102147.13;;;7.97;100.00
52535;BME280;38443;53.164;5.802;2022-10-31T07:22:01;102157.84;;;8.08;100.00
52535;BME280;38443;53.164;5.802;2022-10-31T07:24:26;102159.66;;;8.38;100.00
52535;BME280;38443;53.164;5.802;2022-10-31T07:26:52;102165.06;;;8.52;100.00
52535;BME280;38443;53.164;5.802;2022-10-31T07:29:17;102158.81;;;8.55;100.00
52535;BME280;38443;53.164;5.802;2022-10-31T07:31:42;102164.16;;;8.55;100.00
52535;BME280;38443;53.164;5.802;2022-10-31T07:34:09;102160.59;;;8.59;100.00
52535;BME280;38443;53.164;5.802;2022-10-31T07:36:34;102159.69;;;8.89;100.00
52535;BME280;38443;53.164;5.802;2022-10-31T07:38:59;102168.53;;;9.28;100.00
52535;BME280;38443;53.164;5.802;2022-10-31T07:41:24;102164.03;;;9.41;100.00
52535;BME280;38443;53.164;5.802;2022-10-31T07:43:50;102172.06;;;9.33;100.00
52535;BME280;38443;53.164;5.802;2022-10-31T07:46:15;102172.06;;;9.32;100.00
52535;BME280;38443;53.164;5.802;2022-10-31T07:48:40;102170.25;;;9.46;100.00
52535;BME280;38443;53.164;5.802;2022-10-31T07:51:06;102173.72;;;9.73;100.00
52535;BME280;38443;53.164;5.802;2022-10-31T07:53:32;102166.47;;;9.96;100.00
52535;BME280;38443;53.164;5.802;2022-10-31T07:55:57;102171.66;;;10.30;100.00
52535;BME280;38443;53.164;5.802;2022-10-31T07:58:22;102170.53;;;10.59;100.00
52535;BME280;38443;53.164;5.802;2022-10-31T08:00:47;102169.63;;;10.62;99.87
52535;BME280;38443;53.164;5.802;2022-10-31T08:03:17;102171.41;;;10.63;98.98
52535;BME280;38443;53.164;5.802;2022-10-31T08:05:43;102173.72;;;11.03;99.94
52535;BME280;38443;53.164;5.802;2022-10-31T08:08:11;102176.03;;;11.38;97.54
52535;BME280;38443;53.164;5.802;2022-10-31T08:10:36;102172.38;;;11.45;96.31
52535;BME280;38443;53.164;5.802;2022-10-31T08:13:08;102166.06;;;11.51;96.13
52535;BME280;38443;53.164;5.802;2022-10-31T08:15:34;102168.63;;;11.60;94.89
52535;BME280;38443;53.164;5.802;2022-10-31T08:18:03;102170.34;;;11.64;94.39
52535;BME280;38443;53.164;5.802;2022-10-31T08:20:28;102174.75;;;11.71;94.38
52535;BME280;38443;53.164;5.802;2022-10-31T08:22:57;102181.06;;;11.66;94.17
52535;BME280;38443;53.164;5.802;2022-10-31T08:25:23;102182.16;;;11.49;93.13
52535;BME280;38443;53.164;5.802;2022-10-31T08:27:54;102179.66;;;11.34;93.87
52535;BME280;38443;53.164;5.802;2022-10-31T08:30:21;102175.34;;;11.17;94.50
52535;BME280;38443;53.164;5.802;2022-10-31T08:32:47;102179.13;;;10.98;94.80
52535;BME280;38443;53.164;5.802;2022-10-31T08:35:12;102179.22;;;10.87;95.59
52535;BME280;38443;53.164;5.802;2022-10-31T08:37:38;102181.97;;;10.78;96.69
52535;BME280;38443;53.164;5.802;2022-10-31T08:40:03;102185.56;;;10.74;96.96
52535;BME280;38443;53.164;5.802;2022-10-31T08:42:29;102175.78;;;10.74;97.80
52535;BME280;38443;53.164;5.802;2022-10-31T08:44:54;102185.56;;;10.75;97.96
52535;BME280;38443;53.164;5.802;2022-10-31T08:47:19;102182.00;;;10.76;98.53
52535;BME280;38443;53.164;5.802;2022-10-31T08:49:45;102179.28;;;10.83;98.82
52535;BME280;38443;53.164;5.802;2022-10-31T08:52:10;102179.16;;;10.92;99.62
52535;BME280;38443;53.164;5.802;2022-10-31T08:54:35;102181.72;;;11.04;99.60
52535;BME280;38443;53.164;5.802;2022-10-31T08:57:00;102170.94;;;11.13;99.85
52535;BME280;38443;53.164;5.802;2022-10-31T08:59:26;102170.81;;;11.26;99.93
52535;BME280;38443;53.164;5.802;2022-10-31T09:01:51;102168.91;;;11.35;99.53
52535;BME280;38443;53.164;5.802;2022-10-31T09:04:16;102172.38;;;11.44;99.17
52535;BME280;38443;53.164;5.802;2022-10-31T09:06:41;102166.00;;;11.54;99.19
52535;BME280;38443;53.164;5.802;2022-10-31T09:09:07;102156.91;;;11.69;99.42
52535;BME280;38443;53.164;5.802;2022-10-31T09:11:32;102166.53;;;11.84;99.43
52535;BME280;38443;53.164;5.802;2022-10-31T09:13:57;102162.91;;;11.88;97.74
52535;BME280;38443;53.164;5.802;2022-10-31T09:16:23;102146.72;;;11.97;97.90
52535;BME280;38443;53.164;5.802;2022-10-31T09:18:48;102148.44;;;12.01;97.40
52535;BME280;38443;53.164;5.802;2022-10-31T09:21:13;102153.75;;;12.06;96.47
52535;BME280;38443;53.164;5.802;2022-10-31T09:23:38;102147.41;;;12.10;96.57
52535;BME280;38443;53.164;5.802;2022-10-31T09:26:04;102154.47;;;12.17;97.08
52535;BME280;38443;53.164;5.802;2022-10-31T09:28:29;102153.44;;;12.26;96.60
52535;BME280;38443;53.164;5.802;2022-10-31T09:30:57;102154.19;;;12.35;96.85
52535;BME280;38443;53.164;5.802;2022-10-31T09:33:23;102148.63;;;12.46;95.78
52535;BME280;38443;53.164;5.802;2022-10-31T09:35:48;102152.13;;;12.53;95.49
52535;BME280;38443;53.164;5.802;2022-10-31T09:38:17;102148.41;;;12.62;95.28
52535;BME280;38443;53.164;5.802;2022-10-31T09:43:33;102141.72;;;12.86;94.79
52535;BME280;38443;53.164;5.802;2022-10-31T09:51:25;102139.78;;;12.94;92.02
52535;BME280;38443;53.164;5.802;2022-10-31T09:53:59;102139.78;;;12.92;91.70
52535;BME280;38443;53.164;5.802;2022-10-31T09:56:26;102135.50;;;12.82;92.00
52535;BME280;38443;53.164;5.802;2022-10-31T09:58:57;102135.53;;;12.81;92.97
52535;BME280;38443;53.164;5.802;2022-10-31T10:03:50;102145.63;;;12.66;94.49
52535;BME280;38443;53.164;5.802;2022-10-31T10:06:19;102144.84;;;12.60;94.02
52535;BME280;38443;53.164;5.802;2022-10-31T10:08:46;102145.00;;;12.50;94.41
52535;BME280;38443;53.164;5.802;2022-10-31T10:13:57;102138.88;;;12.41;93.96
52535;BME280;38443;53.164;5.802;2022-10-31T10:24:30;102126.84;;;12.65;95.03
52535;BME280;38443;53.164;5.802;2022-10-31T10:31:56;102131.81;;;12.89;95.08
52535;BME280;38443;53.164;5.802;2022-10-31T10:34:26;102131.72;;;12.92;94.35
52535;BME280;38443;53.164;5.802;2022-10-31T10:36:56;102125.56;;;12.87;93.07
52535;BME280;38443;53.164;5.802;2022-10-31T10:39:28;102122.94;;;12.83;93.59
52535;BME280;38443;53.164;5.802;2022-10-31T10:41:55;102123.81;;;12.85;93.93
52535;BME280;38443;53.164;5.802;2022-10-31T10:44:57;102113.00;;;12.89;94.10
52535;BME280;38443;53.164;5.802;2022-10-31T10:47:42;102121.06;;;12.89;93.15
52535;BME280;38443;53.164;5.802;2022-10-31T10:50:14;102114.78;;;12.89;93.09
52535;BME280;38443;53.164;5.802;2022-10-31T10:57:58;102097.47;;;13.04;93.37
52535;BME280;38443;53.164;5.802;2022-10-31T11:00:27;102093.91;;;13.03;92.82
52535;BME280;38443;53.164;5.802;2022-10-31T11:02:54;102092.00;;;13.10;93.40
52535;BME280;38443;53.164;5.802;2022-10-31T11:05:22;102088.34;;;13.12;93.25
52535;BME280;38443;53.164;5.802;2022-10-31T11:07:48;102086.56;;;13.13;93.03
52535;BME280;38443;53.164;5.802;2022-10-31T11:10:13;102083.78;;;13.16;92.89
52535;BME280;38443;53.164;5.802;2022-10-31T11:12:40;102083.78;;;13.17;92.45
52535;BME280;38443;53.164;5.802;2022-10-31T11:15:07;102069.38;;;13.20;92.96
52535;BME280;38443;53.164;5.802;2022-10-31T11:17:41;102071.16;;;13.21;91.71
52535;BME280;38443;53.164;5.802;2022-10-31T11:22:38;102057.78;;;13.16;91.64
52535;BME280;38443;53.164;5.802;2022-10-31T11:27:43;102052.38;;;13.18;92.17
52535;BME280;38443;53.164;5.802;2022-10-31T11:30:09;102044.19;;;13.24;93.40
52535;BME280;38443;53.164;5.802;2022-10-31T11:32:35;102043.19;;;13.31;93.73
52535;BME280;38443;53.164;5.802;2022-10-31T11:35:02;102042.22;;;13.35;92.25
52535;BME280;38443;53.164;5.802;2022-10-31T11:37:33;102025.97;;;13.40;91.03
52535;BME280;38443;53.164;5.802;2022-10-31T11:40:02;102024.94;;;13.46;91.56
52535;BME280;38443;53.164;5.802;2022-10-31T11:42:34;102022.13;;;13.52;91.80
52535;BME280;38443;53.164;5.802;2022-10-31T11:45:00;102016.66;;;13.55;91.89
52535;BME280;38443;53.164;5.802;2022-10-31T11:47:27;102022.09;;;13.53;90.80
52535;BME280;38443;53.164;5.802;2022-10-31T11:49:53;102017.69;;;13.49;90.89
52535;BME280;38443;53.164;5.802;2022-10-31T11:57:23;102012.75;;;13.28;89.54
52535;BME280;38443;53.164;5.802;2022-10-31T11:59:53;102010.22;;;13.20;89.61
52535;BME280;38443;53.164;5.802;2022-10-31T12:02:18;102005.84;;;13.16;89.70
52535;BME280;38443;53.164;5.802;2022-10-31T12:04:45;102004.97;;;13.14;90.11
52535;BME280;38443;53.164;5.802;2022-10-31T12:07:11;102006.81;;;13.12;90.59
52535;BME280;38443;53.164;5.802;2022-10-31T12:09:36;101999.63;;;13.12;90.55
52535;BME280;38443;53.164;5.802;2022-10-31T12:17:16;101978.34;;;13.03;90.50
52535;BME280;38443;53.164;5.802;2022-10-31T12:30:51;101939.59;;;13.13;90.32
52535;BME280;38443;53.164;5.802;2022-10-31T12:33:32;101934.19;;;13.15;91.60
52535;BME280;38443;53.164;5.802;2022-10-31T12:36:21;101926.13;;;13.15;91.16
52535;BME280;38443;53.164;5.802;2022-10-31T12:44:02;101916.22;;;13.17;90.50
52535;BME280;38443;53.164;5.802;2022-10-31T12:46:56;101913.38;;;13.23;90.49
52535;BME280;38443;53.164;5.802;2022-10-31T12:57:19;101909.19;;;13.49;89.59
52535;BME280;38443;53.164;5.802;2022-10-31T12:59:53;101911.81;;;13.53;89.13
52535;BME280;38443;53.164;5.802;2022-10-31T13:02:27;101908.97;;;13.58;88.38
52535;BME280;38443;53.164;5.802;2022-10-31T13:07:24;101901.44;;;13.72;86.81
52535;BME280;38443;53.164;5.802;2022-10-31T13:10:00;101899.53;;;13.77;86.24
52535;BME280;38443;53.164;5.802;2022-10-31T13:12:26;101893.16;;;13.82;86.02
52535;BME280;38443;53.164;5.802;2022-10-31T13:14:53;101892.22;;;13.83;86.26
52535;BME280;38443;53.164;5.802;2022-10-31T13:17:25;101877.75;;;13.87;86.04
52535;BME280;38443;53.164;5.802;2022-10-31T13:19:53;101879.38;;;13.94;86.51
52535;BME280;38443;53.164;5.802;2022-10-31T13:22:22;101877.50;;;13.96;86.37
52535;BME280;38443;53.164;5.802;2022-10-31T13:27:28;101865.66;;;14.03;85.93
52535;BME280;38443;53.164;5.802;2022-10-31T13:29:58;101869.19;;;14.05;85.26
52535;BME280;38443;53.164;5.802;2022-10-31T13:32:25;101859.28;;;14.07;84.25
52535;BME280;38443;53.164;5.802;2022-10-31T13:34:52;101844.03;;;14.06;84.47
52535;BME280;38443;53.164;5.802;2022-10-31T13:37:26;101838.56;;;14.09;85.07
52535;BME280;38443;53.164;5.802;2022-10-31T13:42:47;101827.00;;;14.06;83.85
52535;BME280;38443;53.164;5.802;2022-10-31T13:45:17;101825.22;;;14.05;84.15
52535;BME280;38443;53.164;5.802;2022-10-31T13:47:43;101826.22;;;14.01;84.25
52535;BME280;38443;53.164;5.802;2022-10-31T13:52:42;101829.41;;;13.84;84.19
52535;BME280;38443;53.164;5.802;2022-10-31T13:55:19;101824.25;;;13.74;84.44
52535;BME280;38443;53.164;5.802;2022-10-31T13:57:53;101815.50;;;13.66;84.47
52535;BME280;38443;53.164;5.802;2022-10-31T14:02:45;101800.47;;;13.59;84.91
52535;BME280;38443;53.164;5.802;2022-10-31T14:05:25;101792.25;;;13.65;85.50
52535;BME280;38443;53.164;5.802;2022-10-31T14:07:51;101798.22;;;13.75;86.30
52535;BME280;38443;53.164;5.802;2022-10-31T14:10:27;101810.59;;;13.82;85.56
52535;BME280;38443;53.164;5.802;2022-10-31T14:13:14;101801.38;;;13.91;85.05
52535;BME280;38443;53.164;5.802;2022-10-31T14:15:39;101804.91;;;13.93;85.23
52535;BME280;38443;53.164;5.802;2022-10-31T14:18:07;101802.19;;;13.94;85.07
52535;BME280;38443;53.164;5.802;2022-10-31T14:20:44;101802.22;;;13.93;85.74
52535;BME280;38443;53.164;5.802;2022-10-31T14:26:05;101780.94;;;13.85;84.92
52535;BME280;38443;53.164;5.802;2022-10-31T14:28:31;101780.13;;;13.82;85.32
52535;BME280;38443;53.164;5.802;2022-10-31T14:30:58;101779.28;;;13.80;86.18
52535;BME280;38443;53.164;5.802;2022-10-31T14:33:24;101781.13;;;13.77;85.78
52535;BME280;38443;53.164;5.802;2022-10-31T14:36:00;101769.59;;;13.72;86.59
52535;BME280;38443;53.164;5.802;2022-10-31T14:41:11;101740.16;;;13.68;88.26
52535;BME280;38443;53.164;5.802;2022-10-31T14:46:19;101741.19;;;13.62;87.53
52535;BME280;38443;53.164;5.802;2022-10-31T14:48:57;101734.13;;;13.58;88.08